Latest Weather Observations for Witchcliffe

IDW60801

Issued at 9:32 am WST Sunday 16 June 2019 (issued every 10 minutes, with the page automatically refreshed every 10 minutes)

About weather observations | Map of weather stations | Latest weather observations for WA | Other Formats
Station Details ID: 009746 Name: WITCHCLIFFE Lat: -34.03 Lon: 115.10 Height: 80.0 m
Data from the previous 72 hours. | See also: Recent months at Witchcliffe
Date/Time
WST
Temp
°C
App
Temp
°C
Dew
Point
°C
Rel
Hum
%
Delta-T
°C
Wind Press
QNH
hPa
Press
MSL
hPa
Rain since
9am
mm
Dir  Spd
km/h
Gust
km/h
Spd
kts
Gust
kts
16/09:30am 14.2 13.0 13.9 98 0.2 NW 13 19 7 10 1025.7 1025.7 0.0
16/09:00am 14.0 12.6 13.5 97 0.3 NW 13 22 7 12 1025.5 1025.5 2.6
16/08:30am 14.2 13.7 13.9 98 0.2 WNW 9 15 5 8 1025.2 1025.2 2.2
16/08:00am 13.7 13.5 13.1 96 0.3 WSW 6 11 3 6 1025.0 1025.0 1.8
16/07:30am 13.5 12.8 13.2 98 0.2 WNW 9 15 5 8 1024.6 1024.6 1.6
16/07:00am 12.9 12.6 12.7 99 0.1 WNW 6 9 3 5 1024.2 1024.2 1.2
16/06:30am 12.8 12.3 12.6 99 0.1 WNW 7 11 4 6 1023.9 1023.9 1.2
16/06:00am 12.4 12.7 12.2 99 0.1 NNW 2 6 1 3 1023.7 1023.7 1.2
16/05:30am 12.4 12.7 12.2 99 0.1 N 2 6 1 3 1023.4 1023.4 1.2
16/05:00am 13.1 13.6 12.9 99 0.1 NNW 2 9 1 5 1023.5 1023.5 1.2
16/04:30am 13.1 12.7 12.9 99 0.1 NW 7 19 4 10 1023.5 1023.5 0.4
16/04:00am 12.2 12.4 12.0 99 0.1 NW 2 6 1 3 1023.6 1023.6 0.4
16/03:30am 12.1 11.4 11.9 99 0.1 NNW 7 9 4 5 1023.7 1023.7 0.4
16/03:00am 11.9 11.1 11.7 99 0.1 NNW 7 11 4 6 1023.7 1023.7 0.4
16/02:30am 10.8 11.0 10.6 99 0.1 CALM 0 0 0 0 1023.7 1023.7 0.4
16/02:00am 10.3 9.0 10.0 98 0.2 N 7 9 4 5 1024.2 1024.2 0.4
16/01:30am 11.0 10.0 10.4 96 0.3 NNW 6 9 3 5 1024.4 1024.4 0.4
16/01:00am 12.2 11.5 11.3 94 0.5 NW 6 7 3 4 1024.5 1024.5 0.4
16/12:30am 12.6 11.7 11.2 91 0.7 NW 7 9 4 5 1024.6 1024.6 0.4
16/12:00am 13.7 12.2 11.8 88 1.0 NW 11 17 6 9 1025.1 1025.1 0.4
 
Date/Time
WST
Temp
°C
App
Temp
°C
Dew
Point
°C
Rel
Hum
%
Delta-T
°C
Wind Press
QNH
hPa
Press
MSL
hPa
Rain since
9am
mm
Dir  Spd
km/h
Gust
km/h
Spd
kts
Gust
kts
15/11:30pm 14.4 13.2 9.4 72 2.6 WSW 6 11 3 6 1025.1 1025.1 0.0
15/11:00pm 14.9 12.2 8.8 67 3.1 WNW 13 20 7 11 1025.2 1025.2 0.0
15/10:30pm 14.7 12.8 9.1 69 2.9 W 9 13 5 7 1025.2 1025.2 0.0
15/10:00pm 13.3 13.5 10.5 83 1.5 CALM 0 6 0 3 1025.4 1025.4 0.0
15/09:30pm 13.8 13.9 10.0 78 2.0 CALM 0 0 0 0 1025.6 1025.6 0.0
15/09:00pm 14.0 12.7 9.8 76 2.2 NW 7 11 4 6 1025.5 1025.5 0.0
15/08:30pm 14.2 12.9 9.2 72 2.6 NW 6 9 3 5 1025.3 1025.3 0.0
15/08:00pm 13.9 12.4 9.1 73 2.4 NNW 7 11 4 6 1025.2 1025.2 0.0
15/07:30pm 13.8 13.5 8.8 72 2.5 CALM 0 0 0 0 1025.2 1025.2 0.0
15/07:00pm 13.6 13.0 9.1 74 2.3 NW 2 7 1 4 1025.0 1025.0 0.0
15/06:30pm 13.2 12.9 8.7 74 2.3 CALM 0 0 0 0 1025.0 1025.0 0.0
15/06:00pm 14.1 13.7 8.3 68 2.9 CALM 0 0 0 0 1024.8 1024.8 0.0
15/05:30pm 14.4 14.1 8.6 68 2.9 CALM 0 0 0 0 1024.5 1024.5 0.0
15/05:00pm 14.9 13.5 8.8 67 3.1 W 6 11 3 6 1024.5 1024.5 0.0
15/04:30pm 15.3 14.1 9.4 68 3.1 WSW 6 11 3 6 1024.5 1024.5 0.0
15/04:00pm 15.5 12.8 9.0 65 3.3 WSW 13 20 7 11 1024.4 1024.4 0.0
15/03:30pm 16.0 13.8 9.4 65 3.4 W 11 17 6 9 1024.4 1024.4 0.0
15/03:00pm 15.9 13.5 8.6 62 3.7 W 11 15 6 8 1024.4 1024.4 0.0
15/02:30pm 16.2 13.6 7.9 58 4.2 WNW 11 19 6 10 1024.5 1024.5 0.0
15/02:00pm 17.0 13.7 8.2 56 4.5 W 15 24 8 13 1024.4 1024.4 0.0
15/01:30pm 17.8 15.0 8.4 54 4.8 W 13 20 7 11 1024.3 1024.3 0.0
15/01:00pm 16.2 13.2 7.7 57 4.3 W 13 20 7 11 1024.3 1024.3 0.0
15/12:30pm 16.3 13.1 8.3 59 4.1 W 15 20 8 11 1024.5 1024.5 0.0
15/12:00pm 16.6 13.9 9.1 61 3.9 WSW 13 22 7 12 1024.7 1024.7 0.0
15/11:30am 16.3 12.4 8.8 61 3.9 WNW 19 28 10 15 1025.1 1025.1 0.0
15/11:00am 16.9 13.9 7.5 54 4.7 W 13 19 7 10 1025.3 1025.3 0.0
15/10:30am 16.4 13.2 8.6 60 4.0 WSW 15 20 8 11 1025.5 1025.5 0.0
15/10:00am 13.9 14.1 13.0 94 0.5 WNW 4 15 2 8 1025.4 1025.4 0.0
15/09:30am 12.6 12.2 12.4 99 0.1 N 6 9 3 5 1025.5 1025.5 0.0
15/09:00am 11.6 11.7 11.4 99 0.1 N 2 9 1 5 1025.4 1025.4 4.4
15/08:30am 11.1 11.4 10.9 99 0.1 CALM 0 0 0 0 1025.1 1025.1 4.4
15/08:00am 10.2 10.3 10.1 99 0.1 CALM 0 0 0 0 1024.7 1024.7 4.4
15/07:30am 10.1 10.2 10.0 99 0.1 CALM 0 0 0 0 1024.4 1024.4 4.4
15/07:00am 9.9 9.9 9.8 99 0.1 CALM 0 0 0 0 1024.1 1024.1 4.4
15/06:30am 9.7 9.6 9.6 99 0.1 CALM 0 0 0 0 1023.8 1023.8 4.4
15/06:00am 9.6 9.5 9.5 99 0.0 CALM 0 0 0 0 1023.6 1023.6 4.4
15/05:30am 9.7 9.6 9.6 99 0.1 CALM 0 0 0 0 1023.5 1023.5 4.4
15/05:00am 10.0 10.0 9.9 99 0.1 CALM 0 0 0 0 1023.4 1023.4 4.4
15/04:30am 10.5 10.6 10.3 99 0.1 CALM 0 0 0 0 1023.3 1023.3 4.4
15/04:00am 10.5 10.6 10.3 99 0.1 CALM 0 0 0 0 1023.1 1023.1 4.4
15/03:30am 10.4 10.5 10.2 99 0.1 CALM 0 0 0 0 1023.1 1023.1 4.4
15/03:00am 9.6 9.4 9.1 97 0.2 CALM 0 0 0 0 1023.1 1023.1 4.4
15/02:30am 10.0 9.8 9.2 95 0.4 CALM 0 0 0 0 1023.1 1023.1 4.4
15/02:00am 10.3 10.1 9.1 92 0.6 CALM 0 0 0 0 1022.9 1022.9 4.4
15/01:30am 10.6 10.4 8.9 89 0.8 CALM 0 0 0 0 1022.8 1022.8 4.4
15/01:00am 11.3 10.8 7.8 79 1.7 CALM 0 6 0 3 1022.8 1022.8 4.4
15/12:30am 13.3 11.3 8.6 73 2.4 SSW 9 17 5 9 1022.6 1022.6 4.4
15/12:00am 13.9 12.1 9.5 75 2.3 SW 9 17 5 9 1022.5 1022.5 4.4
 
Date/Time
WST
Temp
°C
App
Temp
°C
Dew
Point
°C
Rel
Hum
%
Delta-T
°C
Wind Press
QNH
hPa
Press
MSL
hPa
Rain since
9am
mm
Dir  Spd
km/h
Gust
km/h
Spd
kts
Gust
kts
14/11:30pm 13.4 13.5 11.6 89 1.0 SSE 2 13 1 7 1022.6 1022.6 4.4
14/11:00pm 13.4 12.6 11.8 90 0.9 WSW 7 19 4 10 1022.4 1022.4 4.4
14/10:30pm 13.6 11.8 12.0 90 0.9 SSW 13 19 7 10 1022.5 1022.5 4.4
14/10:00pm 13.3 12.0 12.5 95 0.4 SW 11 19 6 10 1022.4 1022.4 4.4
14/09:30pm 13.7 11.7 12.6 93 0.6 SW 15 28 8 15 1022.5 1022.5 4.4
14/09:00pm 14.6 11.8 11.4 81 1.7 SW 17 32 9 17 1022.3 1022.3 2.0
14/08:30pm 14.5 12.6 10.5 77 2.1 WSW 11 17 6 9 1022.1 1022.1 2.0
14/08:00pm 13.9 12.3 10.1 78 2.0 WSW 9 17 5 9 1022.1 1022.1 2.0
14/07:30pm 14.0 12.9 12.0 88 1.1 WSW 9 19 5 10 1022.0 1022.0 2.0
14/07:00pm 14.1 12.3 12.1 88 1.1 WSW 13 20 7 11 1021.8 1021.8 1.8
14/06:30pm 14.1 13.6 12.0 87 1.1 W 6 35 3 19 1021.7 1021.7 1.4
14/06:00pm 14.2 13.7 10.6 79 1.9 NW 4 13 2 7 1021.3 1021.3 0.4
14/05:30pm 14.9 12.4 11.1 78 2.0 WSW 15 26 8 14 1021.1 1021.1 0.0
14/05:00pm 15.6 12.5 10.2 70 2.8 W 17 32 9 17 1021.1 1021.1 0.0
14/04:30pm 16.1 13.0 10.2 68 3.1 W 17 24 9 13 1021.1 1021.1 0.0
14/04:00pm 16.5 12.8 9.4 63 3.7 WSW 19 28 10 15 1021.1 1021.1 0.0
14/03:30pm 16.7 13.1 9.9 64 3.6 WSW 19 35 10 19 1020.9 1020.9 0.0
14/03:00pm 16.4 12.3 10.0 66 3.4 W 22 33 12 18 1020.8 1020.8 0.0
14/02:30pm 16.2 13.3 9.6 65 3.4 W 15 26 8 14 1020.6 1020.6 0.0
14/02:00pm 16.7 13.4 10.8 68 3.2 W 19 30 10 16 1020.7 1020.7 0.0
14/01:30pm 16.2 12.7 10.1 67 3.2 WNW 19 35 10 19 1020.8 1020.8 0.0
14/01:00pm 16.6 12.9 9.3 62 3.8 WNW 19 30 10 16 1020.8 1020.8 0.0
14/12:30pm 16.6 14.0 9.3 62 3.8 WNW 13 22 7 12 1021.1 1021.1 0.0
14/12:00pm 15.9 13.2 10.2 69 3.0 WNW 15 20 8 11 1021.7 1021.7 0.0
14/11:30am 16.1 13.0 8.8 62 3.8 WNW 15 24 8 13 1022.1 1022.1 0.0
14/11:00am 16.1 14.1 10.0 67 3.2 WNW 11 20 6 11 1022.2 1022.2 0.0
14/10:30am 16.5 14.1 10.1 66 3.4 W 13 20 7 11 1022.4 1022.4 0.0
14/10:00am 15.4 12.9 9.7 69 3.0 W 13 22 7 12 1022.7 1022.7 0.0
14/09:30am 14.8 12.1 10.2 74 2.4 W 15 26 8 14 1022.6 1022.6 0.0
14/09:00am 14.9 13.2 9.7 71 2.7 W 9 17 5 9 1022.3 1022.3 6.2
14/08:30am 14.8 11.8 9.4 70 2.8 W 15 24 8 13 1021.9 1021.9 6.2
14/08:00am 13.9 11.5 10.1 78 2.0 WNW 13 17 7 9 1021.7 1021.7 6.2
14/07:30am 13.5 11.7 10.7 83 1.5 WNW 11 19 6 10 1021.4 1021.4 6.2
14/07:00am 13.3 12.4 11.5 89 1.0 WNW 7 13 4 7 1021.3 1021.3 6.2
14/06:30am 13.1 12.2 11.2 88 1.0 NW 7 13 4 7 1021.2 1021.2 6.2
14/06:00am 12.7 10.9 10.9 89 0.9 NW 11 17 6 9 1021.3 1021.3 6.2
14/05:30am 12.4 11.8 12.2 99 0.1 WNW 7 13 4 7 1021.3 1021.3 6.2
14/05:00am 12.4 11.8 12.4 100 0.0 WNW 7 13 4 7 1021.4 1021.4 6.2
14/04:30am 12.3 13.0 12.3 100 0.0 CALM 0 6 0 3 1021.2 1021.2 6.2
14/04:00am 12.1 12.4 12.1 100 0.0 N 2 9 1 5 1021.2 1021.2 6.2
14/03:30am 12.4 12.0 12.4 100 0.0 N 6 9 3 5 1021.3 1021.3 6.0
14/03:00am 12.6 12.1 12.6 100 0.0 NNW 7 13 4 7 1021.7 1021.7 5.6
14/02:30am 12.4 11.4 12.4 100 0.0 NNW 9 11 5 6 1021.6 1021.6 5.4
14/02:00am 12.4 11.4 12.4 100 0.0 NNW 9 11 5 6 1021.7 1021.7 5.2
14/01:30am 12.4 11.1 12.4 100 0.0 NW 11 15 6 8 1021.9 1021.9 4.6
14/01:00am 11.5 10.2 11.3 99 0.1 N 9 13 5 7 1021.6 1021.6 4.4
14/12:30am 11.8 12.3 11.6 99 0.1 CALM 0 0 0 0 1022.2 1022.2 4.4
14/12:00am 11.6 12.0 11.4 99 0.1 CALM 0 0 0 0 1022.3 1022.3 4.4
 
Date/Time
WST
Temp
°C
App
Temp
°C
Dew
Point
°C
Rel
Hum
%
Delta-T
°C
Wind Press
QNH
hPa
Press
MSL
hPa
Rain since
9am
mm
Dir  Spd
km/h
Gust
km/h
Spd
kts
Gust
kts
13/11:30pm 11.5 11.9 11.3 99 0.1 CALM 0 0 0 0 1022.4 1022.4 4.4
13/11:00pm 11.6 12.0 11.4 99 0.1 CALM 0 0 0 0 1022.6 1022.6 4.4
13/10:30pm 12.2 12.8 12.0 99 0.1 CALM 0 0 0 0 1022.6 1022.6 4.4
13/10:00pm 12.5 13.2 12.3 99 0.1 CALM 0 0 0 0 1022.9 1022.9 4.2
13/09:30pm 12.8 13.6 12.6 99 0.1 CALM 0 0 0 0 1023.0 1023.0 4.2
13/09:00pm 12.8 13.6 12.6 99 0.1 CALM 0 0 0 0 1023.1 1023.1 3.6
13/08:30pm 12.9 13.6 12.3 96 0.3 CALM 0 0 0 0 1023.1 1023.1 0.8
13/08:00pm 12.7 13.2 11.6 93 0.6 CALM 0 0 0 0 1022.9 1022.9 0.2
13/07:30pm 13.0 13.4 11.4 90 0.8 CALM 0 0 0 0 1023.1 1023.1 0.0
13/07:00pm 13.3 13.6 11.0 86 1.2 CALM 0 0 0 0 1023.0 1023.0 0.0
13/06:30pm 13.7 13.5 10.5 81 1.7 SSW 2 7 1 4 1022.8 1022.8 0.0
13/06:00pm 14.0 12.8 10.2 78 2.0 NW 7 9 4 5 1022.6 1022.6 0.0
13/05:30pm 13.7 13.6 9.6 76 2.1 CALM 0 0 0 0 1022.4 1022.4 0.0
13/05:00pm 14.6 14.3 8.8 68 2.9 CALM 0 0 0 0 1022.1 1022.1 0.0
13/04:30pm 15.5 13.5 8.7 64 3.5 WSW 9 13 5 7 1022.1 1022.1 0.0
13/04:00pm 15.5 13.0 8.3 62 3.6 SW 11 20 6 11 1022.0 1022.0 0.0
13/03:30pm 15.5 12.5 7.8 60 3.9 WSW 13 24 7 13 1022.1 1022.1 0.0
13/03:00pm 15.5 11.6 7.0 57 4.2 WSW 17 26 9 14 1022.0 1022.0 0.0
13/02:30pm 15.6 12.0 8.4 62 3.7 WSW 17 26 9 14 1021.8 1021.8 0.0
13/02:00pm 16.4 12.9 8.9 61 3.9 W 17 26 9 14 1021.7 1021.7 0.0
13/01:30pm 16.6 14.1 8.1 57 4.3 W 11 20 6 11 1021.8 1021.8 0.0
13/01:00pm 16.1 11.8 7.1 55 4.5 WSW 19 30 10 16 1022.0 1022.0 0.0
13/12:30pm 15.8 12.7 8.8 63 3.6 WSW 15 28 8 15 1022.2 1022.2 0.0
13/12:00pm 16.1 13.4 8.8 62 3.7 WSW 13 20 7 11 1022.4 1022.4 0.0
13/11:30am 16.6 13.4 8.6 59 4.1 W 15 22 8 12 1022.6 1022.6 0.0
13/11:00am 16.5 13.0 8.7 60 4.0 WSW 17 20 9 11 1022.7 1022.7 0.0
13/10:30am 16.0 13.1 8.2 60 4.0 W 13 19 7 10 1022.6 1022.6 0.0
13/10:00am 15.9 14.2 9.8 67 3.2 WSW 9 15 5 8 1022.5 1022.5 0.0

Other formats

Comma delimited format used in spreadsheet applications
http://www.bom.gov.au/fwo/IDW60801/IDW60801.95641.axf

JavaScript Object Notation format (JSON) in row-major order
http://www.bom.gov.au/fwo/IDW60801/IDW60801.95641.json

Data quality

Most of these data are generated automatically and are frequently updated. Quality checks on data are not normally performed. It is possible for incorrect values to appear. Refer to information at About Latest Weather Observations and please check the disclaimer before using these data.